Time;durP1;ratioP1;P1;durP2;ratioP2;P2;SDS_P1;SDS_P2;PMS_P1;PMS_P2;Temp;Humidity;BMP_temperature;BMP_pressure;BME280_temperature;BME280_humidity;BME280_pressure;Samples;Min_cycle;Max_cycle;Signal;HPM_P1;HPM_P2
2022/11/26 00:02:34;;;;;;;623.70;214.17;;;3.30;99.90;;;;;;10465283;28;20025;-82
2022/11/26 00:07:34;;;;;;;781.60;240.97;;;3.20;99.90;;;;;;10468688;28;20041;-80
2022/11/26 00:12:35;;;;;;;449.13;187.93;;;3.30;99.90;;;;;;10484096;28;20044;-82
2022/11/26 00:17:35;;;;;;;548.30;220.17;;;3.30;99.90;;;;;;10467258;28;20043;-80
2022/11/26 00:22:49;;;;;;;419.33;179.57;;;3.30;99.90;;;;;;10464519;28;20029;-79
2022/11/26 00:27:56;;;;;;;494.83;203.33;;;3.30;99.90;;;;;;10459181;28;20539;-80
2022/11/26 00:32:57;;;;;;;477.77;200.30;;;3.40;99.90;;;;;;10463168;28;20123;-81
2022/11/26 00:37:57;;;;;;;1103.20;327.17;;;3.40;99.90;;;;;;10472479;28;20033;-79
2022/11/26 00:42:58;;;;;;;417.30;172.23;;;3.40;99.90;;;;;;10482791;28;20114;-80
2022/11/26 00:48:01;;;;;;;453.47;185.13;;;3.30;99.90;;;;;;10444772;28;20049;-80
2022/11/26 00:53:03;;;;;;;1044.63;309.07;;;3.40;99.90;;;;;;10461785;28;20547;-82
2022/11/26 00:58:06;;;;;;;541.07;223.10;;;3.40;99.90;;;;;;10466234;28;20029;-80
2022/11/26 01:03:06;;;;;;;568.37;227.47;;;3.40;99.90;;;;;;10465186;28;20778;-81
2022/11/26 01:08:33;;;;;;;514.83;209.73;;;3.50;99.90;;;;;;10474177;28;20036;-82
2022/11/26 01:13:34;;;;;;;490.10;207.33;;;3.50;99.90;;;;;;10474285;28;20064;-79
2022/11/26 01:18:35;;;;;;;500.67;205.87;;;3.60;99.90;;;;;;10459974;28;20119;-81
2022/11/26 01:23:35;;;;;;;402.40;166.23;;;3.60;99.90;;;;;;10457910;28;20131;-80
2022/11/26 01:28:36;;;;;;;436.00;182.57;;;3.60;99.90;;;;;;10469038;28;20036;-80
2022/11/26 01:33:36;;;;;;;466.17;205.00;;;3.60;99.90;;;;;;10479549;28;20032;-82
2022/11/26 01:38:37;;;;;;;434.33;170.80;;;3.60;99.90;;;;;;10480777;28;20021;-79
2022/11/26 01:43:42;;;;;;;580.47;207.13;;;3.60;99.90;;;;;;10483638;28;20063;-81
2022/11/26 01:48:43;;;;;;;484.58;181.57;;;3.50;99.90;;;;;;10465333;28;20032;-80
2022/11/26 01:53:57;;;;;;;359.43;134.63;;;3.50;99.90;;;;;;10486923;28;20032;-80
2022/11/26 01:59:11;;;;;;;339.27;125.60;;;3.40;99.90;;;;;;10475449;28;20036;-80
2022/11/26 02:04:29;;;;;;;369.43;133.73;;;3.50;99.90;;;;;;10476856;28;20039;-79
2022/11/26 02:09:30;;;;;;;386.37;143.50;;;3.60;99.90;;;;;;10475670;28;20031;-81
2022/11/26 02:14:35;;;;;;;402.20;155.60;;;3.60;99.90;;;;;;10481898;28;20131;-80
2022/11/26 02:19:44;;;;;;;303.87;117.80;;;3.60;99.90;;;;;;10480624;28;20036;-81
2022/11/26 02:24:54;;;;;;;322.83;126.67;;;3.60;99.90;;;;;;10455091;28;20086;-83
2022/11/26 02:30:06;;;;;;;464.77;154.80;;;3.60;99.90;;;;;;10452525;28;20055;-82
2022/11/26 02:35:23;;;;;;;491.33;166.47;;;3.50;99.90;;;;;;10456959;28;20555;-80
2022/11/26 02:40:24;;;;;;;351.33;133.07;;;3.50;99.90;;;;;;10444694;28;20020;-80
2022/11/26 02:45:29;;;;;;;336.20;117.07;;;3.40;99.90;;;;;;10445668;28;20044;-80
2022/11/26 02:50:42;;;;;;;416.77;141.77;;;3.30;99.90;;;;;;10446805;28;20480;-83
2022/11/26 02:56:00;;;;;;;926.13;216.87;;;3.10;99.90;;;;;;10446562;28;20071;-83
2022/11/26 03:01:05;;;;;;;894.50;207.47;;;2.90;99.90;;;;;;10437981;28;20766;-82
2022/11/26 03:06:10;;;;;;;1110.05;250.25;;;2.70;99.90;;;;;;10405132;28;20094;-82
2022/11/26 03:11:11;;;;;;;379.73;144.23;;;2.50;99.90;;;;;;10441310;28;20039;-80
2022/11/26 03:16:11;;;;;;;460.40;161.10;;;2.40;99.90;;;;;;10445059;28;21741;-80
2022/11/26 03:21:12;;;;;;;682.10;198.00;;;2.40;99.90;;;;;;10445539;28;20043;-79
2022/11/26 03:26:12;;;;;;;592.77;189.33;;;2.30;99.90;;;;;;10425925;28;20391;-80
2022/11/26 03:31:13;;;;;;;689.20;178.73;;;2.20;99.90;;;;;;10444703;28;20112;-79
2022/11/26 03:36:14;;;;;;;1051.40;226.23;;;2.10;99.90;;;;;;10427085;28;20120;-81
2022/11/26 03:41:14;;;;;;;954.10;203.63;;;2.00;99.90;;;;;;10443574;28;20029;-80
2022/11/26 03:46:15;;;;;;;557.87;161.73;;;1.80;99.90;;;;;;10444688;28;20810;-82
2022/11/26 03:51:15;;;;;;;400.97;127.87;;;1.70;99.90;;;;;;10418063;28;20121;-79
2022/11/26 03:56:17;;;;;;;808.50;214.13;;;1.80;99.90;;;;;;10464638;28;20057;-79
2022/11/26 04:01:17;;;;;;;318.67;112.53;;;1.80;99.90;;;;;;10457579;28;20036;-80
2022/11/26 04:06:18;;;;;;;652.27;178.97;;;1.80;99.90;;;;;;10440592;28;20064;-81
2022/11/26 04:11:18;;;;;;;284.27;105.57;;;1.80;99.90;;;;;;10443115;28;20045;-81
2022/11/26 04:16:19;;;;;;;622.67;174.63;;;1.60;99.90;;;;;;10441406;28;20036;-82
2022/11/26 04:21:20;;;;;;;263.63;98.30;;;1.50;99.90;;;;;;10443064;28;20029;-82
2022/11/26 04:26:20;;;;;;;371.60;118.23;;;1.50;99.90;;;;;;10442283;28;20421;-82
2022/11/26 04:31:21;;;;;;;814.43;200.47;;;1.40;99.90;;;;;;10441566;28;20044;-80
2022/11/26 04:36:21;;;;;;;423.30;127.90;;;1.30;99.90;;;;;;10442802;28;20063;-81
2022/11/26 04:41:22;;;;;;;487.57;135.20;;;1.30;99.90;;;;;;10442326;28;20043;-83
2022/11/26 04:46:23;;;;;;;472.73;139.17;;;1.30;99.90;;;;;;10441891;28;20511;-82
2022/11/26 04:51:23;;;;;;;441.93;131.17;;;1.40;99.90;;;;;;10414884;28;20042;-82
2022/11/26 04:56:24;;;;;;;399.17;127.17;;;1.40;99.90;;;;;;10448716;28;20122;-79
2022/11/26 05:01:24;;;;;;;392.13;123.00;;;1.50;99.90;;;;;;10455265;28;20028;-80
2022/11/26 05:06:25;;;;;;;383.10;116.63;;;1.60;99.90;;;;;;10472799;28;20588;-80
2022/11/26 05:11:25;;;;;;;364.50;122.80;;;1.70;99.90;;;;;;10464024;28;20144;-79
2022/11/26 05:16:26;;;;;;;376.90;115.60;;;1.80;99.90;;;;;;10471952;28;20029;-82
2022/11/26 05:21:26;;;;;;;474.23;142.43;;;1.80;99.90;;;;;;10465281;28;20033;-80
2022/11/26 05:26:27;;;;;;;504.37;142.07;;;2.00;99.90;;;;;;10466788;28;20093;-79
2022/11/26 05:31:28;;;;;;;386.27;121.83;;;2.00;99.90;;;;;;10471365;28;20033;-82
2022/11/26 05:36:29;;;;;;;342.97;115.60;;;2.00;99.90;;;;;;10482755;28;20083;-81
2022/11/26 05:41:29;;;;;;;284.83;104.67;;;2.00;99.90;;;;;;10474330;28;20131;-82
2022/11/26 05:46:30;;;;;;;517.07;159.13;;;2.00;99.90;;;;;;10472193;28;20605;-80
2022/11/26 05:51:31;;;;;;;408.57;133.87;;;2.10;99.90;;;;;;10457904;28;20476;-80
2022/11/26 05:56:31;;;;;;;279.80;103.70;;;2.20;99.90;;;;;;10475249;28;20496;-80
2022/11/26 06:01:32;;;;;;;478.33;145.80;;;2.30;99.90;;;;;;10467465;28;20037;-82
2022/11/26 06:06:32;;;;;;;288.77;100.20;;;2.30;99.90;;;;;;10476951;28;20037;-80
2022/11/26 06:11:33;;;;;;;374.27;119.13;;;2.30;99.90;;;;;;10485740;28;20032;-80
2022/11/26 06:16:33;;;;;;;309.07;107.33;;;2.30;99.90;;;;;;10478878;28;20102;-79
2022/11/26 06:21:34;;;;;;;403.30;129.47;;;2.40;99.90;;;;;;10482308;28;20066;-80
2022/11/26 06:26:34;;;;;;;371.50;116.40;;;2.40;99.90;;;;;;10448524;28;20040;-81
2022/11/26 06:31:35;;;;;;;315.57;110.20;;;2.40;99.90;;;;;;10469586;28;20041;-81
2022/11/26 06:36:35;;;;;;;365.23;122.83;;;2.50;99.90;;;;;;10469255;28;20029;-82
2022/11/26 06:41:36;;;;;;;391.57;124.80;;;2.50;99.90;;;;;;10462713;28;20037;-80
2022/11/26 06:46:37;;;;;;;366.00;120.53;;;2.60;99.90;;;;;;10452240;28;20122;-79
2022/11/26 06:51:37;;;;;;;303.57;108.10;;;2.60;99.90;;;;;;10467017;28;20733;-81
2022/11/26 06:56:38;;;;;;;373.87;118.73;;;2.70;99.90;;;;;;10446828;28;20033;-79
2022/11/26 07:01:38;;;;;;;369.03;119.97;;;2.70;99.90;;;;;;10440996;28;20361;-80
2022/11/26 07:06:39;;;;;;;366.80;123.60;;;2.80;99.90;;;;;;10470972;28;20488;-80
2022/11/26 07:11:41;;;;;;;487.67;161.13;;;2.90;99.90;;;;;;10475308;28;20073;-81
2022/11/26 07:16:41;;;;;;;619.20;211.90;;;2.90;99.90;;;;;;10454795;28;20056;-79
2022/11/26 07:21:42;;;;;;;414.27;140.60;;;2.90;99.90;;;;;;10455562;28;20459;-81
2022/11/26 07:26:43;;;;;;;869.27;251.70;;;3.00;99.90;;;;;;10461014;28;20043;-80
2022/11/26 07:31:43;;;;;;;420.17;148.00;;;3.00;99.90;;;;;;10447930;28;20028;-80
2022/11/26 07:36:44;;;;;;;439.80;161.10;;;3.10;99.90;;;;;;10465308;28;20033;-80
2022/11/26 07:41:44;;;;;;;371.60;125.20;;;3.20;99.90;;;;;;10452271;28;20029;-79
2022/11/26 07:46:45;;;;;;;468.27;145.73;;;3.30;99.90;;;;;;10451272;28;20053;-79
2022/11/26 07:51:45;;;;;;;416.67;139.37;;;3.30;99.90;;;;;;10452141;28;20041;-80
2022/11/26 07:56:46;;;;;;;393.27;131.10;;;3.30;99.90;;;;;;10450345;28;20029;-81
2022/11/26 08:01:47;;;;;;;353.17;137.27;;;3.40;99.90;;;;;;10446656;28;20356;-80
2022/11/26 08:06:47;;;;;;;452.57;191.80;;;3.40;99.90;;;;;;10465786;28;20589;-83
2022/11/26 08:11:48;;;;;;;376.53;153.17;;;3.50;99.90;;;;;;10454092;28;20452;-81
2022/11/26 08:16:48;;;;;;;367.43;138.73;;;3.50;99.90;;;;;;10459138;28;20032;-80
2022/11/26 08:21:49;;;;;;;392.53;149.90;;;3.60;99.90;;;;;;10459703;28;20025;-80
2022/11/26 08:26:50;;;;;;;383.17;149.50;;;3.70;99.90;;;;;;10475518;28;20051;-81
2022/11/26 08:31:50;;;;;;;482.70;187.03;;;3.80;99.90;;;;;;10476861;28;20035;-80
2022/11/26 08:36:54;;;;;;;390.80;143.00;;;3.90;99.90;;;;;;10479200;28;20579;-83
2022/11/26 08:41:55;;;;;;;386.10;134.70;;;4.00;99.90;;;;;;10450897;28;20025;-83
2022/11/26 08:46:55;;;;;;;363.70;134.07;;;4.00;99.90;;;;;;10447280;28;20048;-82
2022/11/26 08:51:56;;;;;;;391.83;156.83;;;4.00;99.90;;;;;;10441253;28;20114;-80
2022/11/26 08:56:56;;;;;;;397.20;159.43;;;4.10;99.90;;;;;;10451944;28;20368;-81
2022/11/26 09:01:57;;;;;;;374.90;147.47;;;4.10;99.90;;;;;;10461638;28;20032;-82
2022/11/26 09:06:57;;;;;;;383.27;146.17;;;4.10;99.90;;;;;;10449593;28;20036;-81
2022/11/26 09:12:00;;;;;;;398.30;148.80;;;4.20;99.90;;;;;;10451359;28;20049;-81
2022/11/26 09:17:00;;;;;;;388.87;144.40;;;4.20;99.90;;;;;;10464348;28;20024;-80
2022/11/26 09:22:01;;;;;;;1245.00;524.53;;;4.30;99.90;;;;;;10483273;28;20503;-80
2022/11/26 09:27:01;;;;;;;560.93;266.53;;;4.30;99.90;;;;;;10468432;28;20111;-80
2022/11/26 09:32:02;;;;;;;556.50;253.13;;;4.30;99.90;;;;;;10482851;28;20042;-79
2022/11/26 09:37:03;;;;;;;582.30;267.73;;;4.40;99.90;;;;;;10481922;28;20106;-80
2022/11/26 09:42:16;;;;;;;423.23;163.67;;;4.40;99.90;;;;;;10471485;28;20116;-82
2022/11/26 09:47:27;;;;;;;939.60;408.50;;;4.50;99.90;;;;;;10482468;28;20076;-80
2022/11/26 09:52:34;;;;;;;473.23;179.87;;;4.50;99.90;;;;;;10465791;28;20032;-81
2022/11/26 09:57:42;;;;;;;424.20;158.83;;;4.60;99.90;;;;;;10463075;28;20040;-79
2022/11/26 10:02:42;;;;;;;426.93;161.57;;;4.70;99.90;;;;;;10486105;28;20040;-82
2022/11/26 10:08:02;;;;;;;421.33;180.80;;;4.80;99.90;;;;;;10490147;28;20468;-79
2022/11/26 10:13:32;;;;;;;437.03;149.80;;;4.90;99.90;;;;;;10486179;28;20037;-80
2022/11/26 10:19:05;;;;;;;384.60;130.53;;;4.90;99.90;;;;;;10488338;28;20055;-82
2022/11/26 10:24:25;;;;;;;475.23;174.20;;;5.00;99.90;;;;;;10484758;28;20037;-81
2022/11/26 10:29:32;;;;;;;375.10;118.93;;;5.10;99.90;;;;;;10471727;28;20519;-79
2022/11/26 10:34:40;;;;;;;315.40;98.90;;;5.20;99.90;;;;;;10480386;28;20543;-81
2022/11/26 10:39:42;;;;;;;351.10;121.30;;;5.30;99.90;;;;;;10480910;28;20542;-83
2022/11/26 10:44:42;;;;;;;376.33;123.10;;;5.40;99.90;;;;;;10478401;28;20053;-80
2022/11/26 10:49:43;;;;;;;358.83;116.50;;;5.50;99.90;;;;;;10453977;28;20718;-79
2022/11/26 10:54:44;;;;;;;368.70;116.50;;;5.60;99.90;;;;;;10452193;28;20086;-80
2022/11/26 10:59:50;;;;;;;384.63;115.30;;;5.60;99.90;;;;;;10468797;28;20032;-83
2022/11/26 11:04:52;;;;;;;;;;;5.60;99.90;;;;;;10455622;28;20044;-80
2022/11/26 11:10:06;;;;;;;341.23;99.97;;;5.70;99.90;;;;;;10467862;28;19913;-83
2022/11/26 11:15:26;;;;;;;334.07;98.63;;;5.70;99.90;;;;;;10452646;28;20037;-80
2022/11/26 11:20:39;;;;;;;337.87;108.43;;;5.70;99.90;;;;;;10471635;28;20078;-80
2022/11/26 11:25:44;;;;;;;328.70;106.97;;;5.70;99.90;;;;;;10448571;28;20036;-79
2022/11/26 11:30:55;;;;;;;348.90;115.10;;;5.70;99.90;;;;;;10461081;28;20060;-78
2022/11/26 11:36:26;;;;;;;322.13;107.33;;;5.70;99.90;;;;;;10450008;28;20037;-82
2022/11/26 11:41:36;;;;;;;339.90;116.07;;;5.80;99.90;;;;;;10438619;28;20747;-82
2022/11/26 11:47:14;;;;;;;364.00;115.90;;;5.80;99.90;;;;;;10438587;28;20041;-79
2022/11/26 11:52:28;;;;;;;379.00;129.33;;;5.80;99.90;;;;;;10447581;28;20098;-79
2022/11/26 11:58:03;;;;;;;278.27;91.33;;;5.80;99.90;;;;;;10438237;28;20028;-80
2022/11/26 12:03:25;;;;;;;361.93;122.33;;;5.80;99.90;;;;;;10418262;28;20089;-79
2022/11/26 12:08:52;;;;;;;267.07;99.40;;;5.80;99.90;;;;;;10442249;28;20037;-81
2022/11/26 12:13:59;;;;;;;208.35;76.63;;;5.90;99.90;;;;;;10437795;28;20037;-79
2022/11/26 12:19:11;;;;;;;211.57;75.53;;;6.00;99.90;;;;;;10435242;28;20448;-78
2022/11/26 12:24:37;;;;;;;280.23;106.33;;;6.00;99.90;;;;;;10442490;28;20029;-79
2022/11/26 12:29:44;;;;;;;220.65;79.53;;;6.10;99.90;;;;;;10469803;28;20055;-78
2022/11/26 12:34:51;;;;;;;171.60;55.20;;;6.00;99.90;;;;;;10447775;28;20075;-81
2022/11/26 12:40:03;;;;;;;209.57;64.17;;;6.00;99.90;;;;;;10435658;28;20021;-80
2022/11/26 12:45:25;;;;;;;190.60;58.43;;;5.90;99.90;;;;;;10437872;28;20049;-81
2022/11/26 12:50:37;;;;;;;189.53;59.47;;;6.00;99.90;;;;;;10446145;28;20032;-82
2022/11/26 12:55:49;;;;;;;204.50;68.13;;;5.90;99.90;;;;;;10464534;28;20106;-83
2022/11/26 13:00:53;;;;;;;180.50;59.10;;;5.90;99.90;;;;;;10471512;28;20035;-84
2022/11/26 13:06:06;;;;;;;204.93;66.23;;;5.90;99.90;;;;;;10467590;28;20058;-82
2022/11/26 13:11:18;;;;;;;214.07;62.37;;;5.90;99.90;;;;;;10463342;28;20139;-81
2022/11/26 13:16:44;;;;;;;231.73;70.33;;;5.90;99.90;;;;;;10483304;28;20021;-82
2022/11/26 13:22:12;;;;;;;180.50;54.07;;;5.90;99.90;;;;;;10480787;28;20040;-84
2022/11/26 13:27:37;;;;;;;118.63;36.83;;;5.90;99.90;;;;;;10478484;28;20584;-84
2022/11/26 13:33:22;;;;;;;115.23;36.67;;;6.00;99.90;;;;;;10483024;28;20783;-82
2022/11/26 13:38:35;;;;;;;118.33;42.43;;;5.90;99.90;;;;;;10490537;28;20036;-85
2022/11/26 13:44:07;;;;;;;96.13;33.37;;;5.90;99.90;;;;;;10463095;28;20119;-85
2022/11/26 13:49:35;;;;;;;67.33;25.80;;;5.90;99.90;;;;;;10477778;28;20673;-84
2022/11/26 13:54:48;;;;;;;62.17;24.37;;;5.90;99.90;;;;;;10488523;28;20052;-84
2022/11/26 13:59:52;;;;;;;52.17;21.27;;;5.90;99.90;;;;;;10465660;28;20032;-85
2022/11/26 14:04:52;;;;;;;63.23;22.73;;;5.90;99.90;;;;;;10458555;28;20048;-85
2022/11/26 14:09:59;;;;;;;56.70;22.67;;;5.90;99.90;;;;;;10478720;28;20040;-81
2022/11/26 14:15:00;;;;;;;53.20;22.53;;;5.90;99.90;;;;;;10474949;28;20380;-83
2022/11/26 14:20:02;;;;;;;58.30;24.57;;;5.90;99.90;;;;;;10451846;28;20021;-83
2022/11/26 14:25:09;;;;;;;57.47;24.43;;;5.90;99.90;;;;;;10438988;28;20033;-83
2022/11/26 14:30:19;;;;;;;51.23;21.80;;;5.90;99.90;;;;;;10447466;28;20067;-85
2022/11/26 14:35:29;;;;;;;48.60;21.77;;;5.90;99.90;;;;;;10445280;28;20554;-83
2022/11/26 14:40:33;;;;;;;50.20;22.77;;;5.90;99.90;;;;;;10443862;28;20063;-82
2022/11/26 14:45:33;;;;;;;47.93;19.57;;;5.80;99.90;;;;;;10445058;28;20110;-81
2022/11/26 14:50:35;;;;;;;52.27;21.40;;;5.80;99.90;;;;;;10445885;28;20409;-82
2022/11/26 14:55:36;;;;;;;62.60;22.80;;;5.70;99.90;;;;;;10442787;28;20040;-84
2022/11/26 15:00:37;;;;;;;67.60;24.93;;;5.70;99.90;;;;;;10442026;28;20644;-83
2022/11/26 15:05:42;;;;;;;73.07;25.70;;;5.70;99.90;;;;;;10443461;28;20032;-84
2022/11/26 15:10:46;;;;;;;72.00;25.00;;;5.60;99.90;;;;;;10431970;28;20396;-85
2022/11/26 15:15:51;;;;;;;77.13;26.33;;;5.60;99.90;;;;;;10446359;28;20074;-84
2022/11/26 15:20:52;;;;;;;75.97;27.42;;;5.60;99.90;;;;;;10445328;28;20028;-83
2022/11/26 15:25:53;;;;;;;54.67;21.47;;;5.60;99.90;;;;;;10469952;28;20021;-83
2022/11/26 15:31:02;;;;;;;51.37;21.03;;;5.60;99.90;;;;;;10467257;28;20427;-84
2022/11/26 15:36:04;;;;;;;45.77;19.60;;;5.50;99.90;;;;;;10487711;28;20505;-84
2022/11/26 15:41:16;;;;;;;59.20;21.63;;;5.40;99.90;;;;;;10425440;28;20025;-82
2022/11/26 15:46:24;;;;;;;64.97;22.77;;;5.30;99.90;;;;;;10422771;28;20045;-85
2022/11/26 15:51:36;;;;;;;69.50;26.03;;;5.20;99.90;;;;;;10448539;28;20544;-83
2022/11/26 15:56:38;;;;;;;74.03;24.93;;;5.20;99.90;;;;;;10440135;28;20112;-85
2022/11/26 16:01:43;;;;;;;70.77;27.33;;;5.10;99.90;;;;;;10425276;28;20016;-83
2022/11/26 16:06:43;;;;;;;77.77;27.97;;;5.10;99.90;;;;;;10420746;28;20202;-84
2022/11/26 16:11:58;;;;;;;79.17;26.00;;;5.10;99.90;;;;;;10443773;28;20063;-83
2022/11/26 16:17:08;;;;;;;70.30;25.67;;;5.10;99.90;;;;;;10441867;28;20550;-86
2022/11/26 16:22:14;;;;;;;62.83;22.73;;;5.10;99.90;;;;;;10443089;28;20028;-84
2022/11/26 16:27:20;;;;;;;48.67;19.00;;;5.10;99.90;;;;;;10452436;28;20424;-83
2022/11/26 16:32:21;;;;;;;;;;;5.10;99.90;;;;;;10448574;28;20044;-83
2022/11/26 16:37:25;;;;;;;59.13;21.37;;;5.10;99.90;;;;;;10470219;28;19912;-85
2022/11/26 16:42:28;;;;;;;50.67;19.83;;;5.00;99.90;;;;;;10481820;28;20083;-83
2022/11/26 16:47:33;;;;;;;57.20;22.87;;;4.90;99.90;;;;;;10483602;28;20186;-83
2022/11/26 16:52:34;;;;;;;62.73;25.17;;;4.80;99.90;;;;;;10483684;28;20110;-84
2022/11/26 16:57:35;;;;;;;69.23;24.90;;;4.70;99.90;;;;;;10462375;28;20040;-85
2022/11/26 17:02:36;;;;;;;75.60;26.77;;;4.60;99.90;;;;;;10479156;28;20097;-84
2022/11/26 17:07:46;;;;;;;79.07;27.93;;;4.60;99.90;;;;;;10486124;28;20040;-84
2022/11/26 17:12:48;;;;;;;86.13;31.20;;;4.60;99.90;;;;;;10484752;28;20385;-85
2022/11/26 17:17:51;;;;;;;95.17;34.73;;;4.60;99.90;;;;;;10475099;28;20051;-84
2022/11/26 17:22:51;;;;;;;94.77;35.27;;;4.50;99.90;;;;;;10496917;28;20037;-85
2022/11/26 17:27:52;;;;;;;93.37;33.53;;;4.50;99.90;;;;;;10480308;28;20040;-84
2022/11/26 17:32:53;;;;;;;90.80;31.97;;;4.50;99.90;;;;;;10457844;28;20755;-83
2022/11/26 17:37:53;;;;;;;96.80;32.10;;;4.50;99.90;;;;;;10489666;28;20036;-82
2022/11/26 17:42:55;;;;;;;97.50;33.03;;;4.40;99.90;;;;;;10452172;28;20469;-86
2022/11/26 17:47:55;;;;;;;86.33;33.77;;;4.40;99.90;;;;;;10437894;28;20049;-83
2022/11/26 17:52:56;;;;;;;110.87;36.70;;;4.40;99.90;;;;;;10453394;28;20044;-83
2022/11/26 17:57:57;;;;;;;112.87;36.67;;;4.40;99.90;;;;;;10434400;28;20032;-83
2022/11/26 18:02:57;;;;;;;109.10;37.20;;;4.40;99.90;;;;;;10454243;28;20037;-82
2022/11/26 18:07:58;;;;;;;112.00;41.30;;;4.30;99.90;;;;;;10448728;28;20040;-83
2022/11/26 18:12:58;;;;;;;132.90;45.33;;;4.40;99.90;;;;;;10459438;28;20033;-84
2022/11/26 18:17:59;;;;;;;133.60;44.87;;;4.40;99.90;;;;;;10459737;28;20718;-82
2022/11/26 18:23:00;;;;;;;128.20;46.03;;;4.40;99.90;;;;;;10489451;28;20035;-82
2022/11/26 18:28:00;;;;;;;127.17;44.00;;;4.40;99.90;;;;;;10448236;28;20033;-83
2022/11/26 18:33:01;;;;;;;114.87;43.33;;;4.40;99.90;;;;;;10448300;28;20076;-83
2022/11/26 18:38:02;;;;;;;133.83;43.77;;;4.30;99.90;;;;;;10445809;28;20039;-82
2022/11/26 18:43:04;;;;;;;139.07;45.40;;;4.30;99.90;;;;;;10442830;28;20036;-82
2022/11/26 18:48:05;;;;;;;124.20;44.17;;;4.30;99.90;;;;;;10446271;28;20065;-83
2022/11/26 18:53:20;;;;;;;121.20;39.90;;;4.30;99.90;;;;;;10443634;28;20040;-83
2022/11/26 18:58:22;;;;;;;135.13;43.17;;;4.20;99.90;;;;;;10436754;28;20037;-85
2022/11/26 19:03:24;;;;;;;118.50;41.67;;;4.20;99.90;;;;;;10447934;28;20107;-82
2022/11/26 19:08:25;;;;;;;131.17;45.60;;;4.20;99.90;;;;;;10447840;28;20044;-83
2022/11/26 19:13:25;;;;;;;133.70;43.03;;;4.20;99.90;;;;;;10443355;28;20439;-82
2022/11/26 19:18:26;;;;;;;132.43;45.73;;;4.20;99.90;;;;;;10430941;28;20032;-82
2022/11/26 19:23:27;;;;;;;124.30;40.20;;;4.20;99.90;;;;;;10444860;28;20032;-82
2022/11/26 19:28:28;;;;;;;123.40;41.33;;;4.20;99.90;;;;;;10428606;28;20028;-82
2022/11/26 19:33:29;;;;;;;121.60;39.50;;;4.10;99.90;;;;;;10446568;28;20048;-82
2022/11/26 19:38:30;;;;;;;110.67;38.53;;;4.10;99.90;;;;;;10445701;28;20205;-82
2022/11/26 19:43:34;;;;;;;111.57;37.60;;;4.10;99.90;;;;;;10441315;28;20085;-81
2022/11/26 19:48:36;;;;;;;104.17;34.47;;;4.10;99.90;;;;;;10442942;28;20033;-81
2022/11/26 19:53:37;;;;;;;113.30;36.77;;;4.00;99.90;;;;;;10443686;28;20036;-83
2022/11/26 19:58:38;;;;;;;104.87;34.90;;;3.90;99.90;;;;;;10443757;28;20029;-83
2022/11/26 20:03:39;;;;;;;106.37;35.10;;;4.00;99.90;;;;;;10440394;28;20029;-84
2022/11/26 20:08:39;;;;;;;103.07;34.40;;;4.00;99.90;;;;;;10447995;28;20032;-83
2022/11/26 20:13:41;;;;;;;115.87;39.13;;;4.00;99.90;;;;;;10458138;28;20046;-84
2022/11/26 20:18:43;;;;;;;122.47;38.43;;;3.90;99.90;;;;;;10471930;28;20537;-83
2022/11/26 20:23:43;;;;;;;119.50;38.03;;;3.90;99.90;;;;;;10465740;28;20040;-81
2022/11/26 20:28:44;;;;;;;111.70;39.37;;;3.80;99.90;;;;;;10462999;28;20063;-81
2022/11/26 20:33:45;;;;;;;106.10;35.87;;;3.80;99.90;;;;;;10458475;28;20045;-81
2022/11/26 20:38:46;;;;;;;116.73;36.00;;;3.70;99.90;;;;;;10450900;28;20032;-82
2022/11/26 20:43:47;;;;;;;121.53;39.87;;;3.70;99.90;;;;;;10467994;28;20041;-82
2022/11/26 20:48:48;;;;;;;129.50;41.60;;;3.70;99.90;;;;;;10449778;28;20461;-83
2022/11/26 20:53:50;;;;;;;133.47;39.60;;;3.70;99.90;;;;;;10471073;28;20033;-81
2022/11/26 20:58:51;;;;;;;118.30;38.10;;;3.70;99.90;;;;;;10431754;28;20028;-82
2022/11/26 21:03:52;;;;;;;122.27;41.03;;;3.70;99.90;;;;;;10471371;28;20028;-82
2022/11/26 21:08:53;;;;;;;116.50;36.63;;;3.80;99.90;;;;;;10443909;28;20040;-81
2022/11/26 21:13:53;;;;;;;111.93;36.67;;;3.70;99.90;;;;;;10461507;28;20033;-82
2022/11/26 21:18:55;;;;;;;122.13;39.40;;;3.70;99.90;;;;;;10460602;22;20060;-84
2022/11/26 21:23:56;;;;;;;125.00;41.63;;;3.70;99.90;;;;;;10377261;28;20056;-82
2022/11/26 21:28:59;;;;;;;120.03;41.40;;;3.60;99.90;;;;;;10399323;28;20492;-81
2022/11/26 21:34:03;;;;;;;109.93;39.47;;;3.60;99.90;;;;;;10398852;28;20099;-81
2022/11/26 21:39:05;;;;;;;112.77;37.90;;;3.50;99.90;;;;;;10400044;28;20060;-81
2022/11/26 21:44:06;;;;;;;107.17;36.60;;;3.50;99.90;;;;;;10407278;28;20029;-81
2022/11/26 21:49:07;;;;;;;113.50;36.57;;;3.50;99.90;;;;;;10406817;28;20062;-81
2022/11/26 21:54:08;;;;;;;111.77;38.23;;;3.40;99.90;;;;;;10407478;28;20041;-81
2022/11/26 21:59:09;;;;;;;115.13;37.57;;;3.40;99.90;;;;;;10409403;28;20031;-82
2022/11/26 22:04:13;;;;;;;115.83;37.13;;;3.40;99.90;;;;;;10407069;28;20029;-81
2022/11/26 22:09:15;;;;;;;108.53;36.97;;;3.40;99.90;;;;;;10407072;28;20030;-82
2022/11/26 22:14:16;;;;;;;109.73;37.27;;;3.40;99.90;;;;;;10406506;28;20807;-83
2022/11/26 22:19:16;;;;;;;109.73;37.03;;;3.40;99.90;;;;;;10406094;28;20067;-81
2022/11/26 22:24:19;;;;;;;112.87;35.60;;;3.30;99.90;;;;;;10406068;28;20044;-81
2022/11/26 22:29:19;;;;;;;106.97;32.70;;;3.30;99.90;;;;;;10406100;28;20030;-81
2022/11/26 22:34:23;;;;;;;101.10;35.53;;;3.20;99.90;;;;;;10405743;28;20379;-81
2022/11/26 22:39:23;;;;;;;110.77;39.13;;;3.30;99.90;;;;;;10411426;28;20040;-81
2022/11/26 22:44:24;;;;;;;117.13;37.90;;;3.20;99.90;;;;;;10404998;28;20037;-81
2022/11/26 22:49:24;;;;;;;111.97;35.53;;;3.20;99.90;;;;;;10414493;28;20037;-81
2022/11/26 22:54:25;;;;;;;95.47;32.27;;;3.20;99.90;;;;;;10404736;28;20046;-81
2022/11/26 22:59:26;;;;;;;104.07;36.20;;;3.20;99.90;;;;;;10403692;28;20091;-81
2022/11/26 23:04:26;;;;;;;96.03;37.67;;;3.30;99.90;;;;;;10404227;28;20028;-81
2022/11/26 23:09:28;;;;;;;114.43;35.03;;;3.20;99.90;;;;;;10405755;28;20115;-81
2022/11/26 23:14:28;;;;;;;104.87;36.53;;;3.20;99.90;;;;;;10403818;28;20053;-82
2022/11/26 23:19:29;;;;;;;108.83;33.70;;;3.20;99.90;;;;;;10491142;22;20117;-83
2022/11/26 23:24:29;;;;;;;108.43;35.67;;;3.20;99.90;;;;;;10482777;28;20029;-80
2022/11/26 23:29:30;;;;;;;97.80;33.47;;;3.10;99.90;;;;;;10485853;28;20115;-80
2022/11/26 23:34:30;;;;;;;97.03;31.97;;;3.20;99.90;;;;;;10485327;28;20507;-81
2022/11/26 23:39:31;;;;;;;104.40;34.83;;;3.30;99.90;;;;;;10479082;28;20033;-81
2022/11/26 23:44:31;;;;;;;119.63;43.17;;;3.20;99.90;;;;;;10483180;28;20040;-81
2022/11/26 23:49:32;;;;;;;114.07;38.70;;;3.30;99.90;;;;;;10465280;28;20383;-80
2022/11/26 23:54:33;;;;;;;145.67;46.83;;;3.30;99.90;;;;;;10485196;28;20079;-81
2022/11/26 23:59:33;;;;;;;137.13;46.90;;;3.20;99.90;;;;;;10447943;28;20033;-81
